sensor_id;sensor_type;location;lat;lon;timestamp;P1;durP1;ratioP1;P2;durP2;ratioP2
75798;SDS011;65035;44.726;37.764;2023-04-06T00:00:22;2.53;;;1.95;;
75798;SDS011;65035;44.726;37.764;2023-04-06T00:01:27;2.63;;;2.33;;
75798;SDS011;65035;44.726;37.764;2023-04-06T00:02:30;2.30;;;2.08;;
75798;SDS011;65035;44.726;37.764;2023-04-06T00:03:33;2.63;;;2.30;;
75798;SDS011;65035;44.726;37.764;2023-04-06T00:04:37;2.63;;;2.42;;
75798;SDS011;65035;44.726;37.764;2023-04-06T00:05:40;2.17;;;1.95;;
75798;SDS011;65035;44.726;37.764;2023-04-06T00:06:43;2.58;;;1.77;;
75798;SDS011;65035;44.726;37.764;2023-04-06T00:07:47;2.50;;;2.20;;
75798;SDS011;65035;44.726;37.764;2023-04-06T00:08:50;2.35;;;1.83;;
75798;SDS011;65035;44.726;37.764;2023-04-06T00:09:53;2.60;;;2.35;;
75798;SDS011;65035;44.726;37.764;2023-04-06T00:10:56;2.33;;;1.85;;
75798;SDS011;65035;44.726;37.764;2023-04-06T00:11:59;2.65;;;2.25;;
75798;SDS011;65035;44.726;37.764;2023-04-06T00:13:02;2.85;;;1.98;;
75798;SDS011;65035;44.726;37.764;2023-04-06T00:14:06;2.47;;;2.20;;
75798;SDS011;65035;44.726;37.764;2023-04-06T00:15:09;2.83;;;2.63;;
75798;SDS011;65035;44.726;37.764;2023-04-06T00:16:13;2.35;;;1.55;;
75798;SDS011;65035;44.726;37.764;2023-04-06T00:17:16;2.90;;;2.70;;
75798;SDS011;65035;44.726;37.764;2023-04-06T00:18:19;2.53;;;2.20;;
75798;SDS011;65035;44.726;37.764;2023-04-06T00:19:22;2.30;;;1.98;;
75798;SDS011;65035;44.726;37.764;2023-04-06T00:20:25;1.10;;;0.22;;
75798;SDS011;65035;44.726;37.764;2023-04-06T00:21:28;2.28;;;1.90;;
75798;SDS011;65035;44.726;37.764;2023-04-06T00:22:33;3.45;;;1.85;;
75798;SDS011;65035;44.726;37.764;2023-04-06T00:24:40;2.05;;;1.88;;
75798;SDS011;65035;44.726;37.764;2023-04-06T00:25:43;2.33;;;0.50;;
75798;SDS011;65035;44.726;37.764;2023-04-06T00:26:46;2.28;;;1.50;;
75798;SDS011;65035;44.726;37.764;2023-04-06T00:27:49;2.38;;;1.23;;
75798;SDS011;65035;44.726;37.764;2023-04-06T00:28:52;2.45;;;1.95;;
75798;SDS011;65035;44.726;37.764;2023-04-06T00:29:55;2.22;;;1.88;;
75798;SDS011;65035;44.726;37.764;2023-04-06T00:30:59;2.58;;;0.77;;
75798;SDS011;65035;44.726;37.764;2023-04-06T00:32:02;2.47;;;1.90;;
75798;SDS011;65035;44.726;37.764;2023-04-06T00:33:05;2.47;;;0.63;;
75798;SDS011;65035;44.726;37.764;2023-04-06T00:34:09;2.53;;;2.33;;
75798;SDS011;65035;44.726;37.764;2023-04-06T00:35:12;2.05;;;1.73;;
75798;SDS011;65035;44.726;37.764;2023-04-06T00:36:17;1.70;;;1.60;;
75798;SDS011;65035;44.726;37.764;2023-04-06T00:37:20;2.00;;;1.40;;
75798;SDS011;65035;44.726;37.764;2023-04-06T00:38:23;2.65;;;1.75;;
75798;SDS011;65035;44.726;37.764;2023-04-06T00:39:26;2.40;;;2.20;;
75798;SDS011;65035;44.726;37.764;2023-04-06T00:40:29;2.42;;;2.22;;
75798;SDS011;65035;44.726;37.764;2023-04-06T00:41:33;1.80;;;1.58;;
75798;SDS011;65035;44.726;37.764;2023-04-06T00:42:37;2.38;;;2.10;;
75798;SDS011;65035;44.726;37.764;2023-04-06T00:43:41;2.38;;;1.77;;
75798;SDS011;65035;44.726;37.764;2023-04-06T00:44:44;2.15;;;1.70;;
75798;SDS011;65035;44.726;37.764;2023-04-06T00:45:47;2.40;;;1.95;;
75798;SDS011;65035;44.726;37.764;2023-04-06T00:46:51;2.17;;;1.92;;
75798;SDS011;65035;44.726;37.764;2023-04-06T00:47:54;2.90;;;2.20;;
75798;SDS011;65035;44.726;37.764;2023-04-06T00:48:58;1.70;;;1.15;;
75798;SDS011;65035;44.726;37.764;2023-04-06T00:50:01;3.33;;;1.95;;
75798;SDS011;65035;44.726;37.764;2023-04-06T00:51:04;2.00;;;1.63;;
75798;SDS011;65035;44.726;37.764;2023-04-06T00:53:11;1.95;;;1.52;;
75798;SDS011;65035;44.726;37.764;2023-04-06T00:54:16;2.13;;;1.90;;
75798;SDS011;65035;44.726;37.764;2023-04-06T00:55:19;2.47;;;1.23;;
75798;SDS011;65035;44.726;37.764;2023-04-06T00:56:22;2.17;;;1.98;;
75798;SDS011;65035;44.726;37.764;2023-04-06T00:57:27;3.03;;;2.28;;
75798;SDS011;65035;44.726;37.764;2023-04-06T00:58:31;2.38;;;1.63;;
75798;SDS011;65035;44.726;37.764;2023-04-06T00:59:40;2.40;;;1.85;;
75798;SDS011;65035;44.726;37.764;2023-04-06T01:00:46;2.45;;;2.25;;
75798;SDS011;65035;44.726;37.764;2023-04-06T01:01:53;2.38;;;1.90;;
75798;SDS011;65035;44.726;37.764;2023-04-06T01:03:08;2.28;;;2.08;;
75798;SDS011;65035;44.726;37.764;2023-04-06T01:04:15;2.65;;;1.85;;
75798;SDS011;65035;44.726;37.764;2023-04-06T01:05:18;2.33;;;2.03;;
75798;SDS011;65035;44.726;37.764;2023-04-06T01:06:29;2.35;;;2.15;;
75798;SDS011;65035;44.726;37.764;2023-04-06T01:07:35;2.10;;;1.85;;
75798;SDS011;65035;44.726;37.764;2023-04-06T01:08:44;2.40;;;1.58;;
75798;SDS011;65035;44.726;37.764;2023-04-06T01:09:54;2.45;;;1.65;;
75798;SDS011;65035;44.726;37.764;2023-04-06T01:11:01;2.20;;;0.20;;
75798;SDS011;65035;44.726;37.764;2023-04-06T01:12:04;3.08;;;2.78;;
75798;SDS011;65035;44.726;37.764;2023-04-06T01:13:09;1.95;;;1.23;;
75798;SDS011;65035;44.726;37.764;2023-04-06T01:14:23;2.40;;;1.73;;
75798;SDS011;65035;44.726;37.764;2023-04-06T01:15:32;1.83;;;0.93;;
75798;SDS011;65035;44.726;37.764;2023-04-06T01:16:38;2.15;;;1.88;;
75798;SDS011;65035;44.726;37.764;2023-04-06T01:17:47;2.13;;;2.00;;
75798;SDS011;65035;44.726;37.764;2023-04-06T01:18:51;1.83;;;1.65;;
75798;SDS011;65035;44.726;37.764;2023-04-06T01:19:59;1.80;;;1.40;;
75798;SDS011;65035;44.726;37.764;2023-04-06T01:21:06;2.13;;;1.92;;
75798;SDS011;65035;44.726;37.764;2023-04-06T01:22:15;1.92;;;1.55;;
75798;SDS011;65035;44.726;37.764;2023-04-06T01:23:26;2.00;;;1.65;;
75798;SDS011;65035;44.726;37.764;2023-04-06T01:24:29;2.97;;;1.83;;
75798;SDS011;65035;44.726;37.764;2023-04-06T01:25:42;2.58;;;1.23;;
75798;SDS011;65035;44.726;37.764;2023-04-06T01:26:45;1.65;;;0.77;;
75798;SDS011;65035;44.726;37.764;2023-04-06T01:27:48;2.00;;;1.75;;
75798;SDS011;65035;44.726;37.764;2023-04-06T01:28:56;2.05;;;1.65;;
75798;SDS011;65035;44.726;37.764;2023-04-06T01:30:03;2.42;;;2.05;;
75798;SDS011;65035;44.726;37.764;2023-04-06T01:31:35;2.42;;;1.65;;
75798;SDS011;65035;44.726;37.764;2023-04-06T01:32:39;2.20;;;1.42;;
75798;SDS011;65035;44.726;37.764;2023-04-06T01:33:46;1.73;;;1.27;;
75798;SDS011;65035;44.726;37.764;2023-04-06T01:34:53;1.75;;;1.33;;
75798;SDS011;65035;44.726;37.764;2023-04-06T01:35:57;1.75;;;0.50;;
75798;SDS011;65035;44.726;37.764;2023-04-06T01:37:00;1.25;;;1.15;;
75798;SDS011;65035;44.726;37.764;2023-04-06T01:38:05;1.92;;;1.40;;
75798;SDS011;65035;44.726;37.764;2023-04-06T01:39:10;1.88;;;0.95;;
75798;SDS011;65035;44.726;37.764;2023-04-06T01:40:14;2.58;;;2.38;;
75798;SDS011;65035;44.726;37.764;2023-04-06T01:41:24;2.35;;;2.00;;
75798;SDS011;65035;44.726;37.764;2023-04-06T01:42:28;1.73;;;1.45;;
75798;SDS011;65035;44.726;37.764;2023-04-06T01:43:32;2.20;;;2.00;;
75798;SDS011;65035;44.726;37.764;2023-04-06T01:44:41;2.13;;;1.85;;
75798;SDS011;65035;44.726;37.764;2023-04-06T01:45:48;2.03;;;0.38;;
75798;SDS011;65035;44.726;37.764;2023-04-06T01:46:55;1.65;;;1.52;;
75798;SDS011;65035;44.726;37.764;2023-04-06T01:47:59;1.80;;;1.48;;
75798;SDS011;65035;44.726;37.764;2023-04-06T01:49:03;1.52;;;1.38;;
75798;SDS011;65035;44.726;37.764;2023-04-06T01:50:15;2.28;;;1.33;;
75798;SDS011;65035;44.726;37.764;2023-04-06T01:51:21;2.22;;;2.03;;
75798;SDS011;65035;44.726;37.764;2023-04-06T01:52:33;2.40;;;1.95;;
75798;SDS011;65035;44.726;37.764;2023-04-06T01:53:36;2.72;;;2.53;;
75798;SDS011;65035;44.726;37.764;2023-04-06T01:54:41;2.28;;;2.08;;
75798;SDS011;65035;44.726;37.764;2023-04-06T01:55:48;1.92;;;1.58;;
75798;SDS011;65035;44.726;37.764;2023-04-06T01:56:57;2.15;;;1.90;;
75798;SDS011;65035;44.726;37.764;2023-04-06T01:58:26;1.67;;;1.55;;
75798;SDS011;65035;44.726;37.764;2023-04-06T01:59:32;1.80;;;1.52;;
75798;SDS011;65035;44.726;37.764;2023-04-06T02:00:40;1.75;;;1.27;;
75798;SDS011;65035;44.726;37.764;2023-04-06T02:01:44;1.00;;;0.22;;
75798;SDS011;65035;44.726;37.764;2023-04-06T02:02:47;1.60;;;1.42;;
75798;SDS011;65035;44.726;37.764;2023-04-06T02:03:56;2.20;;;1.67;;
75798;SDS011;65035;44.726;37.764;2023-04-06T02:04:59;1.77;;;1.50;;
75798;SDS011;65035;44.726;37.764;2023-04-06T02:06:04;1.83;;;1.35;;
75798;SDS011;65035;44.726;37.764;2023-04-06T02:07:12;1.50;;;1.40;;
75798;SDS011;65035;44.726;37.764;2023-04-06T02:08:15;1.83;;;1.73;;
75798;SDS011;65035;44.726;37.764;2023-04-06T02:09:18;1.05;;;0.32;;
75798;SDS011;65035;44.726;37.764;2023-04-06T02:10:21;1.67;;;1.55;;
75798;SDS011;65035;44.726;37.764;2023-04-06T02:11:25;2.72;;;0.88;;
75798;SDS011;65035;44.726;37.764;2023-04-06T02:12:30;1.83;;;1.70;;
75798;SDS011;65035;44.726;37.764;2023-04-06T02:13:33;1.52;;;1.42;;
75798;SDS011;65035;44.726;37.764;2023-04-06T02:14:36;1.58;;;1.45;;
75798;SDS011;65035;44.726;37.764;2023-04-06T02:15:40;2.35;;;1.83;;
75798;SDS011;65035;44.726;37.764;2023-04-06T02:16:43;2.58;;;1.73;;
75798;SDS011;65035;44.726;37.764;2023-04-06T02:17:46;2.17;;;1.77;;
75798;SDS011;65035;44.726;37.764;2023-04-06T02:18:49;1.70;;;1.60;;
75798;SDS011;65035;44.726;37.764;2023-04-06T02:19:53;2.15;;;1.48;;
75798;SDS011;65035;44.726;37.764;2023-04-06T02:20:56;2.45;;;1.17;;
75798;SDS011;65035;44.726;37.764;2023-04-06T02:21:59;1.58;;;1.40;;
75798;SDS011;65035;44.726;37.764;2023-04-06T02:23:02;2.90;;;1.58;;
75798;SDS011;65035;44.726;37.764;2023-04-06T02:24:05;2.00;;;1.35;;
75798;SDS011;65035;44.726;37.764;2023-04-06T02:25:09;1.70;;;1.60;;
75798;SDS011;65035;44.726;37.764;2023-04-06T02:26:13;1.98;;;1.38;;
75798;SDS011;65035;44.726;37.764;2023-04-06T02:27:17;1.95;;;1.70;;
75798;SDS011;65035;44.726;37.764;2023-04-06T02:28:21;1.63;;;1.52;;
75798;SDS011;65035;44.726;37.764;2023-04-06T02:30:28;1.67;;;1.13;;
75798;SDS011;65035;44.726;37.764;2023-04-06T02:31:31;2.92;;;1.75;;
75798;SDS011;65035;44.726;37.764;2023-04-06T02:32:35;2.67;;;0.43;;
75798;SDS011;65035;44.726;37.764;2023-04-06T02:33:39;1.85;;;1.25;;
75798;SDS011;65035;44.726;37.764;2023-04-06T02:34:42;1.80;;;1.63;;
75798;SDS011;65035;44.726;37.764;2023-04-06T02:35:45;2.58;;;1.50;;
75798;SDS011;65035;44.726;37.764;2023-04-06T02:36:49;1.58;;;1.38;;
75798;SDS011;65035;44.726;37.764;2023-04-06T02:37:52;1.60;;;1.33;;
75798;SDS011;65035;44.726;37.764;2023-04-06T02:38:54;1.77;;;1.15;;
75798;SDS011;65035;44.726;37.764;2023-04-06T02:39:58;2.15;;;1.23;;
75798;SDS011;65035;44.726;37.764;2023-04-06T02:41:02;1.52;;;1.23;;
75798;SDS011;65035;44.726;37.764;2023-04-06T02:42:05;2.17;;;1.45;;
75798;SDS011;65035;44.726;37.764;2023-04-06T02:43:09;2.08;;;1.38;;
75798;SDS011;65035;44.726;37.764;2023-04-06T02:44:12;1.88;;;1.08;;
75798;SDS011;65035;44.726;37.764;2023-04-06T02:45:17;1.65;;;1.48;;
75798;SDS011;65035;44.726;37.764;2023-04-06T02:46:22;1.92;;;1.80;;
75798;SDS011;65035;44.726;37.764;2023-04-06T02:47:25;2.03;;;0.55;;
75798;SDS011;65035;44.726;37.764;2023-04-06T02:48:28;1.73;;;0.15;;
75798;SDS011;65035;44.726;37.764;2023-04-06T02:49:31;2.42;;;2.33;;
75798;SDS011;65035;44.726;37.764;2023-04-06T02:50:34;1.98;;;1.52;;
75798;SDS011;65035;44.726;37.764;2023-04-06T02:51:40;1.55;;;1.42;;
75798;SDS011;65035;44.726;37.764;2023-04-06T02:52:54;2.00;;;1.45;;
75798;SDS011;65035;44.726;37.764;2023-04-06T02:53:58;1.42;;;1.20;;
75798;SDS011;65035;44.726;37.764;2023-04-06T02:55:01;3.05;;;1.85;;
75798;SDS011;65035;44.726;37.764;2023-04-06T02:56:05;1.60;;;1.30;;
75798;SDS011;65035;44.726;37.764;2023-04-06T02:57:20;1.98;;;1.00;;
75798;SDS011;65035;44.726;37.764;2023-04-06T02:58:25;1.50;;;1.17;;
75798;SDS011;65035;44.726;37.764;2023-04-06T02:59:31;1.35;;;1.25;;
75798;SDS011;65035;44.726;37.764;2023-04-06T03:00:44;0.82;;;0.32;;
75798;SDS011;65035;44.726;37.764;2023-04-06T03:01:48;1.88;;;1.77;;
75798;SDS011;65035;44.726;37.764;2023-04-06T03:02:51;1.55;;;1.45;;
75798;SDS011;65035;44.726;37.764;2023-04-06T03:03:54;1.63;;;1.52;;
75798;SDS011;65035;44.726;37.764;2023-04-06T03:05:01;1.85;;;1.48;;
75798;SDS011;65035;44.726;37.764;2023-04-06T03:06:10;1.63;;;1.20;;
75798;SDS011;65035;44.726;37.764;2023-04-06T03:07:14;1.85;;;1.27;;
75798;SDS011;65035;44.726;37.764;2023-04-06T03:08:17;1.38;;;0.95;;
75798;SDS011;65035;44.726;37.764;2023-04-06T03:09:20;1.67;;;1.23;;
75798;SDS011;65035;44.726;37.764;2023-04-06T03:10:24;1.60;;;1.50;;
75798;SDS011;65035;44.726;37.764;2023-04-06T03:11:27;1.27;;;1.00;;
75798;SDS011;65035;44.726;37.764;2023-04-06T03:12:30;1.65;;;1.45;;
75798;SDS011;65035;44.726;37.764;2023-04-06T03:13:44;0.90;;;0.15;;
75798;SDS011;65035;44.726;37.764;2023-04-06T03:14:47;1.67;;;1.05;;
75798;SDS011;65035;44.726;37.764;2023-04-06T03:15:51;1.60;;;1.30;;
75798;SDS011;65035;44.726;37.764;2023-04-06T03:16:56;1.27;;;1.17;;
75798;SDS011;65035;44.726;37.764;2023-04-06T03:18:00;1.95;;;1.77;;
75798;SDS011;65035;44.726;37.764;2023-04-06T03:19:15;2.15;;;1.52;;
75798;SDS011;65035;44.726;37.764;2023-04-06T03:20:20;2.28;;;1.13;;
75798;SDS011;65035;44.726;37.764;2023-04-06T03:21:24;2.50;;;2.35;;
75798;SDS011;65035;44.726;37.764;2023-04-06T03:23:31;1.75;;;1.27;;
75798;SDS011;65035;44.726;37.764;2023-04-06T03:24:36;1.67;;;1.40;;
75798;SDS011;65035;44.726;37.764;2023-04-06T03:26:49;1.30;;;1.13;;
75798;SDS011;65035;44.726;37.764;2023-04-06T03:27:52;2.55;;;1.63;;
75798;SDS011;65035;44.726;37.764;2023-04-06T03:28:56;2.30;;;1.00;;
75798;SDS011;65035;44.726;37.764;2023-04-06T03:30:04;1.60;;;1.25;;
75798;SDS011;65035;44.726;37.764;2023-04-06T03:31:09;1.60;;;1.30;;
75798;SDS011;65035;44.726;37.764;2023-04-06T03:32:47;1.33;;;1.05;;
75798;SDS011;65035;44.726;37.764;2023-04-06T03:33:51;2.20;;;1.60;;
75798;SDS011;65035;44.726;37.764;2023-04-06T03:35:04;1.92;;;1.33;;
75798;SDS011;65035;44.726;37.764;2023-04-06T03:37:14;1.30;;;1.13;;
75798;SDS011;65035;44.726;37.764;2023-04-06T03:38:22;1.90;;;1.73;;
75798;SDS011;65035;44.726;37.764;2023-04-06T03:39:26;2.13;;;1.55;;
75798;SDS011;65035;44.726;37.764;2023-04-06T03:41:35;1.70;;;1.17;;
75798;SDS011;65035;44.726;37.764;2023-04-06T03:42:57;3.03;;;1.45;;
75798;SDS011;65035;44.726;37.764;2023-04-06T03:44:00;1.23;;;0.20;;
75798;SDS011;65035;44.726;37.764;2023-04-06T03:45:03;1.40;;;1.30;;
75798;SDS011;65035;44.726;37.764;2023-04-06T03:47:09;1.58;;;1.35;;
75798;SDS011;65035;44.726;37.764;2023-04-06T03:48:13;1.85;;;1.45;;
75798;SDS011;65035;44.726;37.764;2023-04-06T03:49:16;1.77;;;1.58;;
75798;SDS011;65035;44.726;37.764;2023-04-06T03:50:23;2.90;;;1.70;;
75798;SDS011;65035;44.726;37.764;2023-04-06T03:51:27;1.52;;;0.80;;
75798;SDS011;65035;44.726;37.764;2023-04-06T03:52:30;1.58;;;1.45;;
75798;SDS011;65035;44.726;37.764;2023-04-06T03:53:33;1.83;;;1.02;;
75798;SDS011;65035;44.726;37.764;2023-04-06T03:54:40;0.82;;;0.03;;
75798;SDS011;65035;44.726;37.764;2023-04-06T03:55:45;1.52;;;0.80;;
75798;SDS011;65035;44.726;37.764;2023-04-06T03:56:48;2.08;;;1.08;;
75798;SDS011;65035;44.726;37.764;2023-04-06T03:57:52;1.58;;;0.98;;
75798;SDS011;65035;44.726;37.764;2023-04-06T03:58:55;3.80;;;1.73;;
75798;SDS011;65035;44.726;37.764;2023-04-06T03:59:58;2.13;;;0.80;;
75798;SDS011;65035;44.726;37.764;2023-04-06T04:01:02;1.63;;;0.93;;
75798;SDS011;65035;44.726;37.764;2023-04-06T04:02:05;1.40;;;0.75;;
75798;SDS011;65035;44.726;37.764;2023-04-06T04:03:09;1.95;;;1.40;;
75798;SDS011;65035;44.726;37.764;2023-04-06T04:04:12;3.17;;;0.88;;
75798;SDS011;65035;44.726;37.764;2023-04-06T04:05:17;2.67;;;1.08;;
75798;SDS011;65035;44.726;37.764;2023-04-06T04:06:20;4.85;;;1.75;;
75798;SDS011;65035;44.726;37.764;2023-04-06T04:07:23;3.45;;;1.60;;
75798;SDS011;65035;44.726;37.764;2023-04-06T04:08:26;3.10;;;1.45;;
75798;SDS011;65035;44.726;37.764;2023-04-06T04:09:30;12.43;;;3.13;;
75798;SDS011;65035;44.726;37.764;2023-04-06T04:10:33;18.02;;;3.95;;
75798;SDS011;65035;44.726;37.764;2023-04-06T04:11:36;15.77;;;2.72;;
75798;SDS011;65035;44.726;37.764;2023-04-06T04:12:39;21.90;;;4.82;;
75798;SDS011;65035;44.726;37.764;2023-04-06T04:13:43;24.30;;;6.93;;
75798;SDS011;65035;44.726;37.764;2023-04-06T04:14:46;25.77;;;6.00;;
75798;SDS011;65035;44.726;37.764;2023-04-06T04:15:49;29.38;;;6.43;;
75798;SDS011;65035;44.726;37.764;2023-04-06T04:16:54;18.48;;;4.82;;
75798;SDS011;65035;44.726;37.764;2023-04-06T04:17:58;24.35;;;4.70;;
75798;SDS011;65035;44.726;37.764;2023-04-06T04:19:02;17.40;;;4.50;;
75798;SDS011;65035;44.726;37.764;2023-04-06T04:20:07;13.48;;;3.92;;
75798;SDS011;65035;44.726;37.764;2023-04-06T04:21:11;17.92;;;4.28;;
75798;SDS011;65035;44.726;37.764;2023-04-06T04:22:15;19.60;;;5.25;;
75798;SDS011;65035;44.726;37.764;2023-04-06T04:23:18;20.70;;;5.65;;
75798;SDS011;65035;44.726;37.764;2023-04-06T04:24:21;19.73;;;3.17;;
75798;SDS011;65035;44.726;37.764;2023-04-06T04:25:24;17.77;;;4.65;;
75798;SDS011;65035;44.726;37.764;2023-04-06T04:26:28;14.80;;;4.05;;
75798;SDS011;65035;44.726;37.764;2023-04-06T04:27:31;16.50;;;4.78;;
75798;SDS011;65035;44.726;37.764;2023-04-06T04:28:38;22.80;;;8.73;;
75798;SDS011;65035;44.726;37.764;2023-04-06T04:29:42;19.83;;;7.30;;
75798;SDS011;65035;44.726;37.764;2023-04-06T04:30:47;19.10;;;6.38;;
75798;SDS011;65035;44.726;37.764;2023-04-06T04:31:51;22.63;;;7.72;;
75798;SDS011;65035;44.726;37.764;2023-04-06T04:32:54;23.30;;;8.50;;
75798;SDS011;65035;44.726;37.764;2023-04-06T04:33:59;20.27;;;5.65;;
75798;SDS011;65035;44.726;37.764;2023-04-06T04:35:06;21.88;;;6.85;;
75798;SDS011;65035;44.726;37.764;2023-04-06T04:36:12;17.20;;;5.43;;
75798;SDS011;65035;44.726;37.764;2023-04-06T04:37:17;19.45;;;5.65;;
75798;SDS011;65035;44.726;37.764;2023-04-06T04:38:30;17.35;;;5.65;;
75798;SDS011;65035;44.726;37.764;2023-04-06T04:39:35;19.52;;;5.30;;
75798;SDS011;65035;44.726;37.764;2023-04-06T04:40:41;13.40;;;4.95;;
75798;SDS011;65035;44.726;37.764;2023-04-06T04:41:46;15.77;;;5.55;;
75798;SDS011;65035;44.726;37.764;2023-04-06T04:42:49;16.25;;;5.30;;
75798;SDS011;65035;44.726;37.764;2023-04-06T04:44:00;14.75;;;5.45;;
75798;SDS011;65035;44.726;37.764;2023-04-06T04:45:04;12.68;;;2.45;;
75798;SDS011;65035;44.726;37.764;2023-04-06T04:46:12;16.65;;;4.30;;
75798;SDS011;65035;44.726;37.764;2023-04-06T04:47:17;12.77;;;4.45;;
75798;SDS011;65035;44.726;37.764;2023-04-06T04:48:22;13.82;;;5.00;;
75798;SDS011;65035;44.726;37.764;2023-04-06T04:49:35;18.80;;;4.38;;
75798;SDS011;65035;44.726;37.764;2023-04-06T04:51:41;16.08;;;4.70;;
75798;SDS011;65035;44.726;37.764;2023-04-06T04:52:54;13.10;;;4.60;;
75798;SDS011;65035;44.726;37.764;2023-04-06T04:54:00;13.50;;;4.45;;
75798;SDS011;65035;44.726;37.764;2023-04-06T04:55:05;14.20;;;4.40;;
75798;SDS011;65035;44.726;37.764;2023-04-06T04:56:09;13.25;;;4.35;;
75798;SDS011;65035;44.726;37.764;2023-04-06T04:57:12;13.63;;;4.57;;
75798;SDS011;65035;44.726;37.764;2023-04-06T04:58:18;10.98;;;3.58;;
75798;SDS011;65035;44.726;37.764;2023-04-06T04:59:27;11.75;;;4.35;;
75798;SDS011;65035;44.726;37.764;2023-04-06T05:00:41;15.43;;;4.35;;
75798;SDS011;65035;44.726;37.764;2023-04-06T05:01:48;10.88;;;3.78;;
75798;SDS011;65035;44.726;37.764;2023-04-06T05:02:57;9.65;;;2.13;;
75798;SDS011;65035;44.726;37.764;2023-04-06T05:04:04;12.98;;;4.82;;
75798;SDS011;65035;44.726;37.764;2023-04-06T05:05:07;12.75;;;3.65;;
75798;SDS011;65035;44.726;37.764;2023-04-06T05:06:11;12.57;;;4.13;;
75798;SDS011;65035;44.726;37.764;2023-04-06T05:07:16;11.10;;;4.07;;
75798;SDS011;65035;44.726;37.764;2023-04-06T05:08:21;10.73;;;4.63;;
75798;SDS011;65035;44.726;37.764;2023-04-06T05:09:24;9.77;;;3.90;;
75798;SDS011;65035;44.726;37.764;2023-04-06T05:10:28;10.10;;;3.05;;
75798;SDS011;65035;44.726;37.764;2023-04-06T05:11:35;10.07;;;3.88;;
75798;SDS011;65035;44.726;37.764;2023-04-06T05:12:38;11.23;;;2.40;;
75798;SDS011;65035;44.726;37.764;2023-04-06T05:13:44;13.43;;;2.13;;
75798;SDS011;65035;44.726;37.764;2023-04-06T05:14:53;11.30;;;4.07;;
75798;SDS011;65035;44.726;37.764;2023-04-06T05:15:58;11.18;;;3.65;;
75798;SDS011;65035;44.726;37.764;2023-04-06T05:17:05;8.05;;;3.63;;
75798;SDS011;65035;44.726;37.764;2023-04-06T05:18:08;11.63;;;3.35;;
75798;SDS011;65035;44.726;37.764;2023-04-06T05:20:18;9.07;;;3.30;;
75798;SDS011;65035;44.726;37.764;2023-04-06T05:21:24;11.93;;;3.70;;
75798;SDS011;65035;44.726;37.764;2023-04-06T05:22:34;9.25;;;3.17;;
75798;SDS011;65035;44.726;37.764;2023-04-06T05:23:42;10.85;;;3.50;;
75798;SDS011;65035;44.726;37.764;2023-04-06T05:24:45;10.35;;;3.67;;
75798;SDS011;65035;44.726;37.764;2023-04-06T05:25:49;10.57;;;3.35;;
75798;SDS011;65035;44.726;37.764;2023-04-06T05:26:56;9.98;;;3.70;;
75798;SDS011;65035;44.726;37.764;2023-04-06T05:27:59;9.10;;;3.72;;
75798;SDS011;65035;44.726;37.764;2023-04-06T05:29:09;12.05;;;3.40;;
75798;SDS011;65035;44.726;37.764;2023-04-06T05:30:14;10.75;;;3.63;;
75798;SDS011;65035;44.726;37.764;2023-04-06T05:31:20;6.85;;;1.35;;
75798;SDS011;65035;44.726;37.764;2023-04-06T05:32:25;8.90;;;2.30;;
75798;SDS011;65035;44.726;37.764;2023-04-06T05:33:30;8.02;;;3.15;;
75798;SDS011;65035;44.726;37.764;2023-04-06T05:34:43;8.88;;;3.22;;
75798;SDS011;65035;44.726;37.764;2023-04-06T05:35:46;5.32;;;1.35;;
75798;SDS011;65035;44.726;37.764;2023-04-06T05:36:52;10.10;;;2.75;;
75798;SDS011;65035;44.726;37.764;2023-04-06T05:37:58;9.43;;;2.95;;
75798;SDS011;65035;44.726;37.764;2023-04-06T05:39:02;9.77;;;3.38;;
75798;SDS011;65035;44.726;37.764;2023-04-06T05:40:18;8.38;;;3.38;;
75798;SDS011;65035;44.726;37.764;2023-04-06T05:41:22;8.40;;;2.95;;
75798;SDS011;65035;44.726;37.764;2023-04-06T05:42:26;8.15;;;2.97;;
75798;SDS011;65035;44.726;37.764;2023-04-06T05:43:33;8.15;;;1.30;;
75798;SDS011;65035;44.726;37.764;2023-04-06T05:45:25;6.68;;;1.52;;
75798;SDS011;65035;44.726;37.764;2023-04-06T05:46:30;7.15;;;1.10;;
75798;SDS011;65035;44.726;37.764;2023-04-06T05:47:34;8.98;;;2.75;;
75798;SDS011;65035;44.726;37.764;2023-04-06T05:48:48;8.35;;;1.30;;
75798;SDS011;65035;44.726;37.764;2023-04-06T05:49:54;7.25;;;1.48;;
75798;SDS011;65035;44.726;37.764;2023-04-06T05:51:06;7.85;;;1.70;;
75798;SDS011;65035;44.726;37.764;2023-04-06T05:52:18;7.38;;;1.65;;
75798;SDS011;65035;44.726;37.764;2023-04-06T05:53:23;6.43;;;1.58;;
75798;SDS011;65035;44.726;37.764;2023-04-06T05:54:32;5.70;;;1.45;;
75798;SDS011;65035;44.726;37.764;2023-04-06T05:55:37;6.63;;;1.45;;
75798;SDS011;65035;44.726;37.764;2023-04-06T05:56:48;7.00;;;2.10;;
75798;SDS011;65035;44.726;37.764;2023-04-06T05:57:51;5.97;;;1.13;;
75798;SDS011;65035;44.726;37.764;2023-04-06T05:58:55;6.10;;;1.13;;
75798;SDS011;65035;44.726;37.764;2023-04-06T06:00:03;4.13;;;0.98;;
75798;SDS011;65035;44.726;37.764;2023-04-06T06:01:21;6.78;;;1.08;;
75798;SDS011;65035;44.726;37.764;2023-04-06T06:02:24;5.50;;;0.98;;
75798;SDS011;65035;44.726;37.764;2023-04-06T06:03:28;5.40;;;1.23;;
75798;SDS011;65035;44.726;37.764;2023-04-06T06:04:32;6.93;;;0.82;;
75798;SDS011;65035;44.726;37.764;2023-04-06T06:05:36;6.50;;;1.25;;
75798;SDS011;65035;44.726;37.764;2023-04-06T06:06:54;6.65;;;1.05;;
75798;SDS011;65035;44.726;37.764;2023-04-06T06:08:05;6.43;;;0.93;;
75798;SDS011;65035;44.726;37.764;2023-04-06T06:09:09;5.40;;;0.93;;
75798;SDS011;65035;44.726;37.764;2023-04-06T06:10:18;7.15;;;1.10;;
75798;SDS011;65035;44.726;37.764;2023-04-06T06:12:24;5.05;;;1.02;;
75798;SDS011;65035;44.726;37.764;2023-04-06T06:13:28;5.65;;;1.23;;
75798;SDS011;65035;44.726;37.764;2023-04-06T06:14:31;5.50;;;1.40;;
75798;SDS011;65035;44.726;37.764;2023-04-06T06:15:35;7.07;;;1.00;;
75798;SDS011;65035;44.726;37.764;2023-04-06T06:16:38;4.28;;;0.90;;
75798;SDS011;65035;44.726;37.764;2023-04-06T06:17:42;4.15;;;1.27;;
75798;SDS011;65035;44.726;37.764;2023-04-06T06:18:46;5.25;;;2.35;;
75798;SDS011;65035;44.726;37.764;2023-04-06T06:19:49;5.15;;;0.70;;
75798;SDS011;65035;44.726;37.764;2023-04-06T06:20:52;8.10;;;1.08;;
75798;SDS011;65035;44.726;37.764;2023-04-06T06:22:44;5.70;;;2.03;;
75798;SDS011;65035;44.726;37.764;2023-04-06T06:23:52;5.80;;;2.35;;
75798;SDS011;65035;44.726;37.764;2023-04-06T06:24:57;6.38;;;2.85;;
75798;SDS011;65035;44.726;37.764;2023-04-06T06:26:00;4.95;;;2.97;;
75798;SDS011;65035;44.726;37.764;2023-04-06T06:27:04;5.95;;;1.90;;
75798;SDS011;65035;44.726;37.764;2023-04-06T06:28:11;4.72;;;3.45;;
75798;SDS011;65035;44.726;37.764;2023-04-06T06:29:14;6.00;;;2.40;;
75798;SDS011;65035;44.726;37.764;2023-04-06T06:30:18;4.05;;;1.10;;
75798;SDS011;65035;44.726;37.764;2023-04-06T06:31:22;3.85;;;1.92;;
75798;SDS011;65035;44.726;37.764;2023-04-06T06:33:20;6.15;;;0.90;;
75798;SDS011;65035;44.726;37.764;2023-04-06T06:34:26;3.65;;;1.55;;
75798;SDS011;65035;44.726;37.764;2023-04-06T06:35:32;2.97;;;0.88;;
75798;SDS011;65035;44.726;37.764;2023-04-06T06:36:38;3.65;;;1.33;;
75798;SDS011;65035;44.726;37.764;2023-04-06T06:37:43;5.45;;;2.13;;
75798;SDS011;65035;44.726;37.764;2023-04-06T06:39:44;4.90;;;0.75;;
75798;SDS011;65035;44.726;37.764;2023-04-06T06:40:47;3.85;;;0.68;;
75798;SDS011;65035;44.726;37.764;2023-04-06T06:44:14;6.95;;;1.25;;